sensor_id;sensor_type;location;lat;lon;timestamp;pressure;altitude;pressure_sealevel;temperature;humidity
3697;BME280;60662;48.810;8.872;2023-04-30T06:19:59;96911.41;;;10.11;84.13
3697;BME280;60662;48.810;8.872;2023-04-30T06:22:17;96894.06;;;10.54;82.71
3697;BME280;60662;48.810;8.872;2023-04-30T06:24:29;96896.47;;;10.81;81.20
3697;BME280;60662;48.810;8.872;2023-04-30T06:26:45;96896.78;;;10.51;81.38
3697;BME280;60662;48.810;8.872;2023-04-30T06:29:00;96901.09;;;10.52;81.92
3697;BME280;60662;48.810;8.872;2023-04-30T06:31:21;96892.22;;;10.78;81.11
3697;BME280;60662;48.810;8.872;2023-04-30T06:33:46;96890.50;;;10.98;80.62
3697;BME280;60662;48.810;8.872;2023-04-30T06:36:06;96900.91;;;11.20;80.67
3697;BME280;60662;48.810;8.872;2023-04-30T06:37:08;96905.66;;;11.31;79.87
3697;BME280;60662;48.810;8.872;2023-04-30T06:38:09;96902.13;;;11.32;79.58
3697;BME280;60662;48.810;8.872;2023-04-30T06:39:14;96893.31;;;11.55;79.34
3697;BME280;60662;48.810;8.872;2023-04-30T06:40:15;96887.75;;;11.62;78.37
3697;BME280;60662;48.810;8.872;2023-04-30T06:41:17;96897.88;;;11.69;77.90
3697;BME280;60662;48.810;8.872;2023-04-30T06:42:19;96890.63;;;11.76;77.30
3697;BME280;60662;48.810;8.872;2023-04-30T06:43:20;96887.72;;;11.82;76.54
3697;BME280;60662;48.810;8.872;2023-04-30T06:44:22;96898.00;;;11.47;77.54
3697;BME280;60662;48.810;8.872;2023-04-30T06:45:24;96893.59;;;11.68;76.93
3697;BME280;60662;48.810;8.872;2023-04-30T06:47:34;96880.06;;;11.19;77.66
3697;BME280;60662;48.810;8.872;2023-04-30T06:49:51;96900.38;;;11.12;78.29
3697;BME280;60662;48.810;8.872;2023-04-30T06:52:05;96899.97;;;11.01;78.03
3697;BME280;60662;48.810;8.872;2023-04-30T06:53:07;96903.97;;;11.09;78.32
3697;BME280;60662;48.810;8.872;2023-04-30T06:54:08;96907.13;;;11.18;78.08
3697;BME280;60662;48.810;8.872;2023-04-30T06:56:18;96911.28;;;11.22;78.45
3697;BME280;60662;48.810;8.872;2023-04-30T06:57:21;96904.84;;;10.89;78.42
3697;BME280;60662;48.810;8.872;2023-04-30T06:58:22;96905.94;;;11.25;78.20
3697;BME280;60662;48.810;8.872;2023-04-30T06:59:24;96899.44;;;11.54;77.66
3697;BME280;60662;48.810;8.872;2023-04-30T07:00:25;96903.13;;;11.69;77.88
3697;BME280;60662;48.810;8.872;2023-04-30T07:01:27;96912.91;;;11.85;76.58
3697;BME280;60662;48.810;8.872;2023-04-30T07:02:29;96902.47;;;12.04;75.58
3697;BME280;60662;48.810;8.872;2023-04-30T07:03:30;96903.00;;;12.30;75.69
3697;BME280;60662;48.810;8.872;2023-04-30T07:04:34;96901.53;;;12.24;74.86
3697;BME280;60662;48.810;8.872;2023-04-30T07:05:35;96914.41;;;12.29;74.52
3697;BME280;60662;48.810;8.872;2023-04-30T07:06:37;96894.91;;;12.53;73.81
3697;BME280;60662;48.810;8.872;2023-04-30T07:07:38;96903.13;;;12.46;73.40
3697;BME280;60662;48.810;8.872;2023-04-30T07:08:40;96889.66;;;11.98;73.85
3697;BME280;60662;48.810;8.872;2023-04-30T07:09:41;96898.41;;;11.38;76.39
3697;BME280;60662;48.810;8.872;2023-04-30T07:10:43;96904.47;;;11.99;75.33
3697;BME280;60662;48.810;8.872;2023-04-30T07:11:44;96886.94;;;11.61;74.60
3697;BME280;60662;48.810;8.872;2023-04-30T07:12:45;96904.19;;;12.05;75.69
3697;BME280;60662;48.810;8.872;2023-04-30T07:13:47;96902.47;;;12.23;73.92
3697;BME280;60662;48.810;8.872;2023-04-30T07:14:48;96899.47;;;11.92;74.67
3697;BME280;60662;48.810;8.872;2023-04-30T07:15:50;96900.44;;;12.47;73.94
3697;BME280;60662;48.810;8.872;2023-04-30T07:16:52;96880.09;;;12.52;73.34
3697;BME280;60662;48.810;8.872;2023-04-30T07:17:53;96898.78;;;12.99;72.55
3697;BME280;60662;48.810;8.872;2023-04-30T07:18:55;96891.81;;;13.15;71.43
3697;BME280;60662;48.810;8.872;2023-04-30T07:19:57;96899.78;;;12.96;70.83
3697;BME280;60662;48.810;8.872;2023-04-30T07:20:58;96890.69;;;13.21;70.26
3697;BME280;60662;48.810;8.872;2023-04-30T07:22:00;96904.84;;;13.52;69.64
3697;BME280;60662;48.810;8.872;2023-04-30T07:23:01;96900.78;;;13.29;71.35
3697;BME280;60662;48.810;8.872;2023-04-30T07:24:03;96896.84;;;13.02;69.82
3697;BME280;60662;48.810;8.872;2023-04-30T07:25:04;96898.25;;;12.92;70.42
3697;BME280;60662;48.810;8.872;2023-04-30T07:26:06;96893.47;;;13.00;70.63
3697;BME280;60662;48.810;8.872;2023-04-30T07:27:07;96897.22;;;13.30;70.07
3697;BME280;60662;48.810;8.872;2023-04-30T07:28:09;96896.44;;;13.63;68.80
3697;BME280;60662;48.810;8.872;2023-04-30T07:29:11;96882.09;;;14.02;68.04
3697;BME280;60662;48.810;8.872;2023-04-30T07:30:12;96897.53;;;13.75;67.50
3697;BME280;60662;48.810;8.872;2023-04-30T07:31:14;96892.69;;;13.33;69.61
3697;BME280;60662;48.810;8.872;2023-04-30T07:32:15;96897.16;;;13.31;68.95
3697;BME280;60662;48.810;8.872;2023-04-30T07:33:17;96874.81;;;12.89;69.94
3697;BME280;60662;48.810;8.872;2023-04-30T07:34:18;96895.88;;;13.90;68.54
3697;BME280;60662;48.810;8.872;2023-04-30T07:35:20;96884.53;;;14.05;67.39
3697;BME280;60662;48.810;8.872;2023-04-30T07:36:21;96896.06;;;13.53;68.30
3697;BME280;60662;48.810;8.872;2023-04-30T07:37:23;96892.56;;;13.86;67.12
3697;BME280;60662;48.810;8.872;2023-04-30T07:38:24;96895.97;;;14.04;67.02
3697;BME280;60662;48.810;8.872;2023-04-30T07:39:26;96887.09;;;14.23;66.51
3697;BME280;60662;48.810;8.872;2023-04-30T07:40:27;96884.91;;;14.61;64.92
3697;BME280;60662;48.810;8.872;2023-04-30T07:41:34;96880.81;;;14.41;66.44
3697;BME280;60662;48.810;8.872;2023-04-30T07:42:36;96877.88;;;14.78;65.61
3697;BME280;60662;48.810;8.872;2023-04-30T07:43:40;96877.31;;;14.41;64.75
3697;BME280;60662;48.810;8.872;2023-04-30T07:44:42;96878.06;;;14.75;64.67
3697;BME280;60662;48.810;8.872;2023-04-30T07:45:44;96878.81;;;15.07;63.58
3697;BME280;60662;48.810;8.872;2023-04-30T07:46:45;96865.72;;;14.91;63.82
3697;BME280;60662;48.810;8.872;2023-04-30T07:47:47;96872.00;;;14.89;64.51
3697;BME280;60662;48.810;8.872;2023-04-30T07:48:49;96874.94;;;14.98;64.00
3697;BME280;60662;48.810;8.872;2023-04-30T07:49:50;96884.16;;;14.75;64.11
3697;BME280;60662;48.810;8.872;2023-04-30T07:50:52;96887.91;;;14.71;64.08
3697;BME280;60662;48.810;8.872;2023-04-30T07:51:53;96875.91;;;14.35;64.77
3697;BME280;60662;48.810;8.872;2023-04-30T07:52:55;96876.38;;;13.27;66.96
3697;BME280;60662;48.810;8.872;2023-04-30T07:53:56;96877.97;;;12.78;67.88
3697;BME280;60662;48.810;8.872;2023-04-30T07:54:58;96880.38;;;13.69;68.04
3697;BME280;60662;48.810;8.872;2023-04-30T07:55:59;96876.00;;;14.17;66.48
3697;BME280;60662;48.810;8.872;2023-04-30T07:57:00;96873.38;;;14.64;64.80
3697;BME280;60662;48.810;8.872;2023-04-30T07:58:03;96870.75;;;14.80;63.83
3697;BME280;60662;48.810;8.872;2023-04-30T07:59:05;96883.16;;;14.62;63.49
3697;BME280;60662;48.810;8.872;2023-04-30T08:00:07;96882.25;;;13.99;63.89
3697;BME280;60662;48.810;8.872;2023-04-30T08:01:08;96876.44;;;13.76;65.75
3697;BME280;60662;48.810;8.872;2023-04-30T08:02:10;96879.19;;;13.23;66.30
3697;BME280;60662;48.810;8.872;2023-04-30T08:03:11;96885.34;;;13.74;66.63
3697;BME280;60662;48.810;8.872;2023-04-30T08:04:13;96878.91;;;14.43;64.94
3697;BME280;60662;48.810;8.872;2023-04-30T08:05:14;96874.59;;;13.78;64.42
3697;BME280;60662;48.810;8.872;2023-04-30T08:06:19;96878.69;;;13.50;65.58
3697;BME280;60662;48.810;8.872;2023-04-30T08:07:20;96883.66;;;13.21;65.97
3697;BME280;60662;48.810;8.872;2023-04-30T08:08:22;96885.97;;;13.45;65.92
3697;BME280;60662;48.810;8.872;2023-04-30T08:09:23;96885.22;;;13.08;67.62
3697;BME280;60662;48.810;8.872;2023-04-30T08:10:25;96872.41;;;13.19;66.62
3697;BME280;60662;48.810;8.872;2023-04-30T08:11:26;96878.00;;;13.80;65.83
3697;BME280;60662;48.810;8.872;2023-04-30T08:12:28;96882.75;;;14.21;64.91
3697;BME280;60662;48.810;8.872;2023-04-30T08:13:30;96867.84;;;14.38;64.28
3697;BME280;60662;48.810;8.872;2023-04-30T08:14:32;96871.13;;;14.42;64.78
3697;BME280;60662;48.810;8.872;2023-04-30T08:15:35;96874.69;;;14.41;63.57
3697;BME280;60662;48.810;8.872;2023-04-30T08:16:37;96877.16;;;14.90;62.51
3697;BME280;60662;48.810;8.872;2023-04-30T08:17:39;96880.69;;;14.75;62.65
3697;BME280;60662;48.810;8.872;2023-04-30T08:18:40;96881.97;;;14.51;62.11
3697;BME280;60662;48.810;8.872;2023-04-30T08:19:45;96877.03;;;14.77;61.31
3697;BME280;60662;48.810;8.872;2023-04-30T08:20:46;96884.31;;;15.47;62.21
3697;BME280;60662;48.810;8.872;2023-04-30T08:21:48;96883.28;;;15.93;62.49
3697;BME280;60662;48.810;8.872;2023-04-30T08:22:50;96885.63;;;15.98;60.19
3697;BME280;60662;48.810;8.872;2023-04-30T08:23:52;96883.34;;;14.43;62.10
3697;BME280;60662;48.810;8.872;2023-04-30T08:24:53;96884.63;;;14.03;65.74
3697;BME280;60662;48.810;8.872;2023-04-30T08:25:55;96890.47;;;15.17;63.97
3697;BME280;60662;48.810;8.872;2023-04-30T08:26:57;96885.91;;;15.93;62.67
3697;BME280;60662;48.810;8.872;2023-04-30T08:28:00;96872.69;;;15.95;62.06
3697;BME280;60662;48.810;8.872;2023-04-30T08:29:02;96873.63;;;16.21;59.67
3697;BME280;60662;48.810;8.872;2023-04-30T08:30:05;96882.63;;;16.46;58.75
3697;BME280;60662;48.810;8.872;2023-04-30T08:31:07;96869.69;;;16.56;59.54
3697;BME280;60662;48.810;8.872;2023-04-30T08:32:08;96889.44;;;16.76;59.44
3697;BME280;60662;48.810;8.872;2023-04-30T08:33:10;96886.69;;;16.92;57.29
3697;BME280;60662;48.810;8.872;2023-04-30T08:34:12;96889.09;;;15.98;57.00
3697;BME280;60662;48.810;8.872;2023-04-30T08:35:13;96886.19;;;15.60;59.44
3697;BME280;60662;48.810;8.872;2023-04-30T08:36:17;96890.72;;;15.87;59.00
3697;BME280;60662;48.810;8.872;2023-04-30T08:37:18;96889.00;;;15.42;58.48
3697;BME280;60662;48.810;8.872;2023-04-30T08:38:20;96883.06;;;14.63;59.29
3697;BME280;60662;48.810;8.872;2023-04-30T08:39:21;96883.06;;;14.47;58.90
3697;BME280;60662;48.810;8.872;2023-04-30T08:40:22;96890.16;;;14.61;58.77
3697;BME280;60662;48.810;8.872;2023-04-30T08:41:45;96886.44;;;14.81;60.49
3697;BME280;60662;48.810;8.872;2023-04-30T08:43:06;96885.09;;;14.74;60.81
3697;BME280;60662;48.810;8.872;2023-04-30T08:44:09;96868.72;;;15.44;59.28
3697;BME280;60662;48.810;8.872;2023-04-30T08:45:11;96883.56;;;16.03;58.46
3697;BME280;60662;48.810;8.872;2023-04-30T08:46:16;96888.31;;;16.53;58.88
3697;BME280;60662;48.810;8.872;2023-04-30T08:47:19;96881.31;;;16.39;58.26
3697;BME280;60662;48.810;8.872;2023-04-30T08:48:22;96880.56;;;15.66;56.77
3697;BME280;60662;48.810;8.872;2023-04-30T08:49:25;96880.06;;;14.85;59.13
3697;BME280;60662;48.810;8.872;2023-04-30T08:50:28;96881.75;;;14.86;60.12
3697;BME280;60662;48.810;8.872;2023-04-30T08:51:31;96883.50;;;14.56;59.82
3697;BME280;60662;48.810;8.872;2023-04-30T08:52:33;96889.53;;;13.94;61.49
3697;BME280;60662;48.810;8.872;2023-04-30T08:53:36;96891.81;;;14.00;63.05
3697;BME280;60662;48.810;8.872;2023-04-30T08:54:41;96892.22;;;14.72;61.48
3697;BME280;60662;48.810;8.872;2023-04-30T08:55:45;96891.78;;;14.80;61.77
3697;BME280;60662;48.810;8.872;2023-04-30T08:56:46;96885.03;;;15.21;60.99
3697;BME280;60662;48.810;8.872;2023-04-30T08:57:48;96883.91;;;14.80;59.48
3697;BME280;60662;48.810;8.872;2023-04-30T08:58:49;96879.34;;;13.71;61.64
3697;BME280;60662;48.810;8.872;2023-04-30T08:59:52;96887.78;;;13.61;63.33
3697;BME280;60662;48.810;8.872;2023-04-30T09:00:57;96886.31;;;14.04;62.72
3697;BME280;60662;48.810;8.872;2023-04-30T09:01:59;96887.31;;;14.18;62.10
3697;BME280;60662;48.810;8.872;2023-04-30T09:03:02;96889.19;;;14.00;62.84
3697;BME280;60662;48.810;8.872;2023-04-30T09:04:04;96890.28;;;13.96;62.55
3697;BME280;60662;48.810;8.872;2023-04-30T09:05:13;96883.41;;;14.57;62.87
3697;BME280;60662;48.810;8.872;2023-04-30T09:06:15;96884.16;;;14.59;62.27
3697;BME280;60662;48.810;8.872;2023-04-30T09:07:17;96876.56;;;14.23;61.91
3697;BME280;60662;48.810;8.872;2023-04-30T09:08:46;96882.56;;;14.41;61.31
3697;BME280;60662;48.810;8.872;2023-04-30T09:09:51;96883.88;;;14.17;61.04
3697;BME280;60662;48.810;8.872;2023-04-30T09:10:53;96881.72;;;13.92;60.72
3697;BME280;60662;48.810;8.872;2023-04-30T09:13:16;96875.81;;;14.20;61.37
3697;BME280;60662;48.810;8.872;2023-04-30T09:14:23;96887.03;;;14.54;60.63
3697;BME280;60662;48.810;8.872;2023-04-30T09:15:26;96874.13;;;14.19;61.58
3697;BME280;60662;48.810;8.872;2023-04-30T09:17:46;96883.44;;;13.93;63.57
3697;BME280;60662;48.810;8.872;2023-04-30T09:18:49;96883.53;;;13.92;62.74
3697;BME280;60662;48.810;8.872;2023-04-30T09:19:51;96878.59;;;13.85;62.78
3697;BME280;60662;48.810;8.872;2023-04-30T09:21:01;96884.06;;;13.65;63.23
3697;BME280;60662;48.810;8.872;2023-04-30T09:22:19;96876.31;;;13.46;63.41
3697;BME280;60662;48.810;8.872;2023-04-30T09:23:21;96884.41;;;13.59;63.15
3697;BME280;60662;48.810;8.872;2023-04-30T09:24:23;96877.59;;;13.88;63.12
3697;BME280;60662;48.810;8.872;2023-04-30T09:25:37;96875.28;;;13.98;62.71
3697;BME280;60662;48.810;8.872;2023-04-30T09:26:39;96880.91;;;14.24;61.97
3697;BME280;60662;48.810;8.872;2023-04-30T09:27:41;96883.50;;;14.40;61.71
3697;BME280;60662;48.810;8.872;2023-04-30T09:28:54;96879.16;;;14.54;60.42
3697;BME280;60662;48.810;8.872;2023-04-30T09:29:57;96875.28;;;14.46;60.08
3697;BME280;60662;48.810;8.872;2023-04-30T09:30:58;96870.13;;;13.80;60.14
3697;BME280;60662;48.810;8.872;2023-04-30T09:32:07;96876.47;;;14.24;60.80
3697;BME280;60662;48.810;8.872;2023-04-30T09:33:09;96882.41;;;14.44;61.45
3697;BME280;60662;48.810;8.872;2023-04-30T09:34:13;96882.41;;;14.44;60.51
3697;BME280;60662;48.810;8.872;2023-04-30T09:35:30;96875.22;;;14.31;59.34
3697;BME280;60662;48.810;8.872;2023-04-30T09:36:32;96883.78;;;14.35;60.52
3697;BME280;60662;48.810;8.872;2023-04-30T09:37:36;96880.47;;;14.15;60.54
3697;BME280;60662;48.810;8.872;2023-04-30T09:38:38;96880.22;;;14.04;60.54
3697;BME280;60662;48.810;8.872;2023-04-30T09:39:50;96874.03;;;14.21;60.07
3697;BME280;60662;48.810;8.872;2023-04-30T09:40:52;96880.06;;;14.07;60.57
3697;BME280;60662;48.810;8.872;2023-04-30T09:42:06;96887.34;;;14.02;60.44
3697;BME280;60662;48.810;8.872;2023-04-30T09:43:08;96878.84;;;13.81;60.86
3697;BME280;60662;48.810;8.872;2023-04-30T09:44:28;96873.94;;;14.07;60.85
3697;BME280;60662;48.810;8.872;2023-04-30T09:45:45;96887.66;;;14.28;60.42
3697;BME280;60662;48.810;8.872;2023-04-30T09:46:49;96879.53;;;14.32;59.76
3697;BME280;60662;48.810;8.872;2023-04-30T09:47:51;96875.72;;;14.38;59.40
3697;BME280;60662;48.810;8.872;2023-04-30T09:49:01;96883.59;;;14.54;59.91
3697;BME280;60662;48.810;8.872;2023-04-30T09:50:03;96881.13;;;14.67;61.39
3697;BME280;60662;48.810;8.872;2023-04-30T09:51:06;96880.00;;;14.71;60.39
3697;BME280;60662;48.810;8.872;2023-04-30T09:52:08;96881.69;;;14.56;57.47
3697;BME280;60662;48.810;8.872;2023-04-30T09:53:11;96879.13;;;14.86;59.71
3697;BME280;60662;48.810;8.872;2023-04-30T09:54:15;96887.84;;;15.17;59.71
3697;BME280;60662;48.810;8.872;2023-04-30T09:55:19;96880.34;;;15.26;58.85
3697;BME280;60662;48.810;8.872;2023-04-30T09:56:25;96875.91;;;15.12;56.48
3697;BME280;60662;48.810;8.872;2023-04-30T09:57:29;96882.19;;;15.09;56.77
3697;BME280;60662;48.810;8.872;2023-04-30T09:58:36;96881.84;;;15.30;58.61
3697;BME280;60662;48.810;8.872;2023-04-30T09:59:45;96886.31;;;14.83;56.15
3697;BME280;60662;48.810;8.872;2023-04-30T10:00:49;96887.50;;;14.93;57.03
3697;BME280;60662;48.810;8.872;2023-04-30T10:01:51;96886.34;;;15.28;57.59
3697;BME280;60662;48.810;8.872;2023-04-30T10:02:54;96886.16;;;15.31;56.59
3697;BME280;60662;48.810;8.872;2023-04-30T10:03:56;96883.28;;;15.50;56.88
3697;BME280;60662;48.810;8.872;2023-04-30T10:04:59;96886.84;;;15.63;56.60
3697;BME280;60662;48.810;8.872;2023-04-30T10:06:02;96878.19;;;15.47;55.87
3697;BME280;60662;48.810;8.872;2023-04-30T10:07:10;96882.59;;;15.17;55.13
3697;BME280;60662;48.810;8.872;2023-04-30T10:08:29;96884.50;;;15.44;55.63
3697;BME280;60662;48.810;8.872;2023-04-30T10:09:39;96887.97;;;15.45;55.50
3697;BME280;60662;48.810;8.872;2023-04-30T10:10:44;96871.56;;;15.11;54.52
3697;BME280;60662;48.810;8.872;2023-04-30T10:11:47;96883.22;;;15.07;56.01
3697;BME280;60662;48.810;8.872;2023-04-30T10:12:53;96879.22;;;15.59;56.63
3697;BME280;60662;48.810;8.872;2023-04-30T10:14:02;96886.84;;;15.63;55.75
3697;BME280;60662;48.810;8.872;2023-04-30T10:15:12;96872.56;;;15.67;55.02
3697;BME280;60662;48.810;8.872;2023-04-30T10:17:37;96887.44;;;15.83;55.37
3697;BME280;60662;48.810;8.872;2023-04-30T10:18:45;96870.31;;;15.76;55.18
3697;BME280;60662;48.810;8.872;2023-04-30T10:19:51;96880.16;;;15.58;54.79
3697;BME280;60662;48.810;8.872;2023-04-30T10:20:56;96875.75;;;15.73;55.36
3697;BME280;60662;48.810;8.872;2023-04-30T10:21:58;96879.06;;;16.05;55.69
3697;BME280;60662;48.810;8.872;2023-04-30T10:23:00;96888.28;;;15.98;56.08
3697;BME280;60662;48.810;8.872;2023-04-30T10:24:02;96883.56;;;16.03;55.20
3697;BME280;60662;48.810;8.872;2023-04-30T10:25:04;96883.34;;;16.21;54.70
3697;BME280;60662;48.810;8.872;2023-04-30T10:26:06;96874.34;;;16.38;54.89
3697;BME280;60662;48.810;8.872;2023-04-30T10:27:08;96869.88;;;16.25;55.43
3697;BME280;60662;48.810;8.872;2023-04-30T10:28:10;96876.75;;;16.13;54.96
3697;BME280;60662;48.810;8.872;2023-04-30T10:29:12;96873.84;;;16.18;55.46
3697;BME280;60662;48.810;8.872;2023-04-30T10:30:15;96869.25;;;16.07;54.70
3697;BME280;60662;48.810;8.872;2023-04-30T10:31:17;96873.75;;;16.20;54.16
3697;BME280;60662;48.810;8.872;2023-04-30T10:32:21;96872.03;;;16.19;54.07
3697;BME280;60662;48.810;8.872;2023-04-30T10:35:52;96863.06;;;16.36;51.72
3697;BME280;60662;48.810;8.872;2023-04-30T10:36:59;96873.28;;;16.55;52.39
3697;BME280;60662;48.810;8.872;2023-04-30T10:38:24;96865.94;;;16.45;54.20
3697;BME280;60662;48.810;8.872;2023-04-30T10:39:27;96860.66;;;16.73;53.18
3697;BME280;60662;48.810;8.872;2023-04-30T10:40:34;96861.31;;;17.29;52.14
3697;BME280;60662;48.810;8.872;2023-04-30T10:41:37;96858.47;;;16.79;54.01
3697;BME280;60662;48.810;8.872;2023-04-30T10:42:47;96862.03;;;16.78;53.07
3697;BME280;60662;48.810;8.872;2023-04-30T10:43:49;96859.88;;;16.58;51.36
3697;BME280;60662;48.810;8.872;2023-04-30T10:44:51;96858.69;;;16.22;52.22
3697;BME280;60662;48.810;8.872;2023-04-30T10:45:53;96866.09;;;16.57;53.54
3697;BME280;60662;48.810;8.872;2023-04-30T10:46:58;96855.69;;;17.08;52.72
3697;BME280;60662;48.810;8.872;2023-04-30T10:48:01;96860.34;;;17.30;51.90
3697;BME280;60662;48.810;8.872;2023-04-30T10:49:03;96854.97;;;17.19;51.57
3697;BME280;60662;48.810;8.872;2023-04-30T10:50:09;96858.97;;;17.25;51.94
3697;BME280;60662;48.810;8.872;2023-04-30T10:51:10;96846.53;;;17.27;51.75
3697;BME280;60662;48.810;8.872;2023-04-30T10:52:12;96847.06;;;16.39;51.37
3697;BME280;60662;48.810;8.872;2023-04-30T10:53:16;96849.72;;;16.52;52.20
3697;BME280;60662;48.810;8.872;2023-04-30T10:54:27;96854.56;;;16.45;53.71
3697;BME280;60662;48.810;8.872;2023-04-30T10:55:30;96850.13;;;16.86;52.23
3697;BME280;60662;48.810;8.872;2023-04-30T10:56:32;96847.31;;;16.48;52.53
3697;BME280;60662;48.810;8.872;2023-04-30T10:57:41;96844.16;;;16.84;52.09
3697;BME280;60662;48.810;8.872;2023-04-30T10:58:43;96844.84;;;17.00;52.98
3697;BME280;60662;48.810;8.872;2023-04-30T10:59:53;96846.09;;;16.67;52.82
3697;BME280;60662;48.810;8.872;2023-04-30T11:01:17;96837.41;;;16.92;52.31
3697;BME280;60662;48.810;8.872;2023-04-30T11:02:19;96842.31;;;16.71;51.55
3697;BME280;60662;48.810;8.872;2023-04-30T11:03:21;96841.09;;;16.49;52.88
3697;BME280;60662;48.810;8.872;2023-04-30T11:04:22;96850.50;;;16.54;52.46
3697;BME280;60662;48.810;8.872;2023-04-30T11:05:45;96851.13;;;16.30;52.16
3697;BME280;60662;48.810;8.872;2023-04-30T11:07:57;96836.94;;;16.73;51.64
3697;BME280;60662;48.810;8.872;2023-04-30T11:09:02;96841.53;;;16.02;52.07
3697;BME280;60662;48.810;8.872;2023-04-30T11:10:06;96838.34;;;15.96;52.03
3697;BME280;60662;48.810;8.872;2023-04-30T11:11:09;96839.94;;;16.26;51.75
3697;BME280;60662;48.810;8.872;2023-04-30T11:12:20;96833.66;;;15.87;52.20
3697;BME280;60662;48.810;8.872;2023-04-30T11:13:28;96837.78;;;16.33;52.55
3697;BME280;60662;48.810;8.872;2023-04-30T11:14:31;96831.59;;;15.63;52.52
3697;BME280;60662;48.810;8.872;2023-04-30T11:15:39;96843.22;;;16.30;51.94
3697;BME280;60662;48.810;8.872;2023-04-30T11:16:41;96834.03;;;16.23;51.94
3697;BME280;60662;48.810;8.872;2023-04-30T11:17:44;96831.69;;;16.45;52.41
3697;BME280;60662;48.810;8.872;2023-04-30T11:18:50;96821.66;;;16.78;52.40
3697;BME280;60662;48.810;8.872;2023-04-30T11:19:52;96832.66;;;16.44;52.02
3697;BME280;60662;48.810;8.872;2023-04-30T11:20:56;96816.00;;;16.57;50.93
3697;BME280;60662;48.810;8.872;2023-04-30T11:23:08;96832.19;;;16.78;50.89
3697;BME280;60662;48.810;8.872;2023-04-30T11:24:11;96831.38;;;16.77;51.21
3697;BME280;60662;48.810;8.872;2023-04-30T11:25:18;96833.59;;;16.43;50.37
3697;BME280;60662;48.810;8.872;2023-04-30T11:26:20;96823.91;;;16.16;50.68
3697;BME280;60662;48.810;8.872;2023-04-30T11:27:24;96824.38;;;16.36;51.02
3697;BME280;60662;48.810;8.872;2023-04-30T11:28:27;96837.31;;;16.54;52.78
3697;BME280;60662;48.810;8.872;2023-04-30T11:29:29;96829.25;;;16.83;51.10
3697;BME280;60662;48.810;8.872;2023-04-30T11:30:32;96819.81;;;17.06;50.07
3697;BME280;60662;48.810;8.872;2023-04-30T11:31:35;96829.84;;;17.52;50.35
3697;BME280;60662;48.810;8.872;2023-04-30T11:32:37;96827.63;;;17.46;50.60
3697;BME280;60662;48.810;8.872;2023-04-30T11:33:39;96814.53;;;17.32;50.59
3697;BME280;60662;48.810;8.872;2023-04-30T11:34:45;96825.81;;;17.59;50.25
3697;BME280;60662;48.810;8.872;2023-04-30T11:35:48;96828.03;;;17.66;52.26
3697;BME280;60662;48.810;8.872;2023-04-30T11:36:57;96825.00;;;17.46;49.66
3697;BME280;60662;48.810;8.872;2023-04-30T11:37:59;96822.00;;;17.51;51.16
3697;BME280;60662;48.810;8.872;2023-04-30T11:39:02;96819.03;;;17.68;50.61
3697;BME280;60662;48.810;8.872;2023-04-30T11:40:07;96826.22;;;17.79;51.14
3697;BME280;60662;48.810;8.872;2023-04-30T11:41:11;96830.16;;;17.60;51.01
3697;BME280;60662;48.810;8.872;2023-04-30T11:42:18;96812.22;;;17.40;50.24
3697;BME280;60662;48.810;8.872;2023-04-30T11:43:23;96828.44;;;17.59;50.53
3697;BME280;60662;48.810;8.872;2023-04-30T11:44:25;96820.66;;;17.45;51.16
3697;BME280;60662;48.810;8.872;2023-04-30T11:45:27;96826.66;;;17.60;51.50
3697;BME280;60662;48.810;8.872;2023-04-30T11:46:28;96815.09;;;17.87;52.17
3697;BME280;60662;48.810;8.872;2023-04-30T11:47:44;96819.44;;;17.88;51.45
3697;BME280;60662;48.810;8.872;2023-04-30T11:48:46;96832.31;;;17.79;50.45
3697;BME280;60662;48.810;8.872;2023-04-30T11:49:49;96825.84;;;17.21;49.12
3697;BME280;60662;48.810;8.872;2023-04-30T11:50:51;96824.75;;;16.97;50.03
3697;BME280;60662;48.810;8.872;2023-04-30T11:51:53;96818.56;;;17.37;52.10
3697;BME280;60662;48.810;8.872;2023-04-30T11:52:56;96805.56;;;17.60;51.83
3697;BME280;60662;48.810;8.872;2023-04-30T11:53:58;96816.59;;;16.88;50.75
3697;BME280;60662;48.810;8.872;2023-04-30T11:55:00;96820.00;;;17.54;52.67
3697;BME280;60662;48.810;8.872;2023-04-30T11:56:02;96815.13;;;17.74;51.27
3697;BME280;60662;48.810;8.872;2023-04-30T11:57:04;96810.53;;;17.89;51.92
3697;BME280;60662;48.810;8.872;2023-04-30T11:58:08;96802.78;;;17.61;51.27
3697;BME280;60662;48.810;8.872;2023-04-30T11:59:10;96807.66;;;17.42;51.07
3697;BME280;60662;48.810;8.872;2023-04-30T12:00:25;96809.59;;;17.40;51.98
3697;BME280;60662;48.810;8.872;2023-04-30T12:01:27;96811.47;;;17.25;51.76
3697;BME280;60662;48.810;8.872;2023-04-30T12:02:29;96808.00;;;17.11;50.70
3697;BME280;60662;48.810;8.872;2023-04-30T12:03:31;96803.50;;;16.73;50.41
3697;BME280;60662;48.810;8.872;2023-04-30T12:04:32;96807.91;;;17.00;50.30
3697;BME280;60662;48.810;8.872;2023-04-30T12:05:34;96806.84;;;17.03;52.18
3697;BME280;60662;48.810;8.872;2023-04-30T12:06:36;96803.56;;;16.59;51.44
3697;BME280;60662;48.810;8.872;2023-04-30T12:07:37;96799.47;;;16.55;52.67
3697;BME280;60662;48.810;8.872;2023-04-30T12:08:40;96805.69;;;16.94;52.84
3697;BME280;60662;48.810;8.872;2023-04-30T12:09:54;96802.28;;;16.92;51.29
3697;BME280;60662;48.810;8.872;2023-04-30T12:10:57;96808.31;;;16.94;52.52
3697;BME280;60662;48.810;8.872;2023-04-30T12:11:58;96801.63;;;16.48;51.76
3697;BME280;60662;48.810;8.872;2023-04-30T12:13:00;96809.28;;;16.25;52.14
3697;BME280;60662;48.810;8.872;2023-04-30T12:14:03;96801.84;;;16.45;53.87
3697;BME280;60662;48.810;8.872;2023-04-30T12:15:13;96807.94;;;16.86;53.66
3697;BME280;60662;48.810;8.872;2023-04-30T12:16:14;96812.28;;;16.87;52.94
3697;BME280;60662;48.810;8.872;2023-04-30T12:17:30;96803.47;;;16.60;53.29
3697;BME280;60662;48.810;8.872;2023-04-30T12:18:31;96809.09;;;16.81;52.35
3697;BME280;60662;48.810;8.872;2023-04-30T12:19:33;96815.66;;;16.89;52.67
3697;BME280;60662;48.810;8.872;2023-04-30T12:20:34;96812.25;;;16.74;52.12
3697;BME280;60662;48.810;8.872;2023-04-30T12:21:37;96816.47;;;16.36;51.95
3697;BME280;60662;48.810;8.872;2023-04-30T12:22:39;96814.88;;;16.33;51.88
3697;BME280;60662;48.810;8.872;2023-04-30T12:23:41;96815.66;;;16.36;52.89